Terminal Aerodrome Forecast
Issued by NWS

Home | Current Version | Previous Version | Text Only | Print | Product List | Glossary On
Versions: 1 2 3 4 5 6 7 8 9 10 11 12 13 14 15 16 17
020
FTUS43 KGRB 230520
TAFCWA
TAF
KCWA 230520Z 2306/2406 34005KT 5SM BR SCT010 BKN070
     FM230700 34008G17KT 5SM BR SCT006 OVC010
     FM231500 02010G17KT P6SM SCT020 BKN250
     FM232300 05008KT P6SM SCT025 BKN090
     FM240500 05012G18KT 3SM -SN SCT012 OVC025=

USA.gov is the U.S. government's official web portal to all federal, state and local government web resources and services.